Ana Sayfa
METAR-TAF:

METAR-TAF

Havaalanları :

Fort McMurray, Alberta, Kanada

Enlem: 56-39N, Boylam: 111-13W, yükseklik: 369 m

Güncel hava durumu gözlemi

Rapor saat 21:00 UTC de 1 saat ve 1 dakika önce yapıldı.
Rüzgar kuzeydoğudan 8 kt, kuzey ve güney/güneydoğu arasında değişken
Sıcaklık 18°C
Nem 30%
Basınç 1011 hPa
Görüş mesafesi: 14.5 km
7500 ft yükseklikte çok bulutlu

METAR: CYMM 242100Z AUTO 04008KT 010V150 9SM OVC075 18/M00 A2986 RMK SLP123 DENSITY ALT 1900FT

Saat: 16:01 (22:01 UTC)

Tahmin

Rapor saat 18:38 UTC de 3 saat ve 23 dakika önce yapıldı.
Ayın 24'si saat 19 UTC'den ayın 25'si saat 07 UTC'ye kadar geçerli Tahmin
Rüzgar kuzey/kuzeydoğudan 12 kt
Görüş mesafesi: 10 km
7000 ft yükseklikte az bulutlu
Dönüşüyor
ayın 25'si saat 03 UTC'den ayın 25'si saat 05 UTC'ye kadar
Rüzgar kuzeydan 6 kt

TAF: CYMM 241838Z 2419/2507 03012KT P6SM FEW070 BECMG 2503/2505 36006KT RMK FCST BASED ON AUTO OBS. NXT FCST BY 250100Z

4.000'den fazla havaalanı için hava durumu gözlemleri ve tahminleri (METAR ve TAF raporları).

Kullanılabilir istasyonlar harita üzerinde sarı ve kırmızı noktalarla gösterilir.

İstasyonun adını görmek için fareyi noktanın üzerinde gezdirin.

Sonrasında hava gözlem ve tahminlerini görmek için tıklayın.

Haritayı değiştirmek için: yaklaştırmak için siyah artı işaretli yeşil düğmeye ve uzaklaştırmak için de eksi işaretli düğmeye hızla tıklayın; bitişik haritalar için yeşil okları kullanın.


METAR-TAF: